Time;durP1;ratioP1;P1;durP2;ratioP2;P2;SDS_P1;SDS_P2;PMS_P1;PMS_P2;Temp;Humidity;BMP_temperature;BMP_pressure;BME280_temperature;BME280_humidity;BME280_pressure;Samples;Min_cycle;Max_cycle;Signal;HPM_P1;HPM_P2
2022/11/01 00:01:34;;;;;;;15.07;7.43;;;14.20;80.70;;;;;;5074140;28;20044;-76
2022/11/01 00:04:02;;;;;;;16.15;7.43;;;14.20;80.70;;;;;;5074287;28;20055;-76
2022/11/01 00:06:29;;;;;;;15.47;7.50;;;14.10;80.70;;;;;;5052260;28;20049;-76
2022/11/01 00:08:56;;;;;;;15.43;7.68;;;14.10;80.70;;;;;;5033818;28;20517;-76
2022/11/01 00:11:23;;;;;;;14.45;7.47;;;14.10;80.60;;;;;;5052244;28;20088;-75
2022/11/01 00:13:50;;;;;;;15.00;7.65;;;14.10;80.50;;;;;;5060880;28;20052;-76
2022/11/01 00:16:18;;;;;;;14.15;6.60;;;14.10;80.50;;;;;;5092645;28;20056;-76
2022/11/01 00:18:45;;;;;;;13.97;6.87;;;14.10;80.50;;;;;;5074202;28;20049;-76
2022/11/01 00:21:14;;;;;;;15.18;7.30;;;14.10;80.60;;;;;;5072456;28;20048;-75
2022/11/01 00:23:42;;;;;;;13.82;6.80;;;14.10;80.60;;;;;;5033868;28;20151;-76
2022/11/01 00:26:13;;;;;;;14.57;6.63;;;14.10;80.60;;;;;;5017464;28;20045;-76
2022/11/01 00:28:40;;;;;;;13.98;6.70;;;14.10;80.40;;;;;;5034160;28;20049;-76
2022/11/01 00:31:07;;;;;;;17.27;7.40;;;14.10;80.60;;;;;;5071548;28;20052;-76
2022/11/01 00:33:34;;;;;;;13.55;6.47;;;14.10;80.50;;;;;;5056617;28;20049;-76
2022/11/01 00:36:01;;;;;;;14.32;6.80;;;14.10;80.50;;;;;;5073489;28;20052;-76
2022/11/01 00:38:29;;;;;;;12.20;6.15;;;14.10;80.40;;;;;;5052671;28;20060;-76
2022/11/01 00:40:57;;;;;;;12.57;5.97;;;14.10;80.50;;;;;;5071530;28;20049;-76
2022/11/01 00:43:24;;;;;;;15.00;7.17;;;14.10;80.40;;;;;;5071801;28;20063;-76
2022/11/01 00:45:51;;;;;;;11.63;5.93;;;14.10;80.50;;;;;;5071700;28;20075;-76
2022/11/01 00:48:18;;;;;;;13.27;6.20;;;14.10;80.60;;;;;;5068976;28;20505;-76
2022/11/01 00:50:45;;;;;;;12.27;6.28;;;14.10;80.50;;;;;;5072955;28;20110;-76
2022/11/01 00:53:13;;;;;;;13.40;5.70;;;14.10;80.40;;;;;;5091575;28;20058;-76
2022/11/01 00:55:41;;;;;;;15.30;5.80;;;14.10;80.20;;;;;;5084851;28;20061;-75
2022/11/01 00:58:09;;;;;;;10.63;5.45;;;14.10;80.20;;;;;;5033792;28;20504;-75
2022/11/01 01:00:36;;;;;;;12.80;6.20;;;14.10;80.00;;;;;;5050960;28;20050;-76
2022/11/01 01:03:05;;;;;;;15.13;5.75;;;14.10;80.10;;;;;;5051729;28;20055;-75
2022/11/01 01:05:33;;;;;;;12.88;5.72;;;14.10;80.10;;;;;;5062787;28;20080;-76
2022/11/01 01:08:00;;;;;;;11.97;5.60;;;14.10;80.10;;;;;;5090150;28;20138;-76
2022/11/01 01:10:27;;;;;;;11.52;5.85;;;14.10;80.00;;;;;;5091531;28;20087;-76
2022/11/01 01:12:55;;;;;;;14.50;5.40;;;14.10;79.90;;;;;;5080086;28;20053;-76
2022/11/01 01:15:22;;;;;;;12.43;5.50;;;14.10;79.80;;;;;;5051015;28;20053;-76
2022/11/01 01:17:48;;;;;;;12.90;5.25;;;14.20;79.80;;;;;;5033284;28;20140;-76
2022/11/01 01:20:15;;;;;;;13.90;5.07;;;14.20;79.70;;;;;;5050259;28;20049;-75
2022/11/01 01:22:42;;;;;;;10.43;5.35;;;14.20;79.60;;;;;;5068891;28;20426;-76
2022/11/01 01:25:10;;;;;;;11.38;5.47;;;14.20;79.60;;;;;;5091527;28;20167;-76
2022/11/01 01:27:37;;;;;;;12.77;4.95;;;14.20;79.60;;;;;;5091120;28;20083;-76
2022/11/01 01:30:07;;;;;;;11.95;5.55;;;14.20;79.60;;;;;;5078044;28;20126;-76
2022/11/01 01:32:35;;;;;;;10.30;5.10;;;14.30;79.60;;;;;;5032888;28;20056;-75
2022/11/01 01:35:02;;;;;;;10.75;5.13;;;14.30;79.60;;;;;;5043429;28;20499;-76
2022/11/01 01:37:29;;;;;;;11.52;5.07;;;14.30;79.70;;;;;;5071422;28;20052;-76
2022/11/01 01:39:56;;;;;;;9.45;4.78;;;14.30;79.60;;;;;;5065925;28;20047;-76
2022/11/01 01:42:28;;;;;;;9.80;4.68;;;14.30;79.70;;;;;;5072915;28;20048;-76
2022/11/01 01:45:37;;;;;;;13.90;5.03;;;14.30;79.70;;;;;;5090547;28;20454;-76
2022/11/01 01:48:12;;;;;;;9.85;4.88;;;14.30;79.50;;;;;;5042109;28;20053;-76
2022/11/01 01:50:45;;;;;;;14.82;5.05;;;14.40;79.60;;;;;;5032132;28;20054;-75
2022/11/01 01:53:17;;;;;;;12.73;5.18;;;14.40;79.50;;;;;;5050825;28;20572;-76
2022/11/01 01:55:50;;;;;;;12.80;5.07;;;14.40;79.40;;;;;;5078822;28;20095;-76
2022/11/01 01:58:20;;;;;;;10.33;4.73;;;14.40;79.40;;;;;;5072787;28;20044;-76
2022/11/01 02:00:47;;;;;;;10.20;4.68;;;14.40;79.40;;;;;;5091021;28;20110;-76
2022/11/01 02:03:16;;;;;;;9.32;4.68;;;14.40;79.50;;;;;;5090462;28;20045;-76
2022/11/01 02:05:48;;;;;;;10.48;4.80;;;14.40;79.40;;;;;;5065295;28;20041;-75
2022/11/01 02:08:15;;;;;;;10.68;4.68;;;14.40;79.50;;;;;;5050296;28;20148;-76
2022/11/01 02:10:43;;;;;;;10.83;4.43;;;14.50;79.30;;;;;;5050387;28;20050;-76
2022/11/01 02:13:14;;;;;;;10.23;4.75;;;14.50;79.30;;;;;;5076135;28;20052;-76
2022/11/01 02:15:49;;;;;;;11.57;4.47;;;14.50;79.20;;;;;;5090325;28;20199;-76
2022/11/01 02:18:25;;;;;;;11.35;4.85;;;14.50;79.30;;;;;;5072278;28;20553;-76
2022/11/01 02:21:22;;;;;;;9.70;4.53;;;14.50;79.20;;;;;;5079524;28;20515;-76
2022/11/01 02:24:24;;;;;;;10.57;4.43;;;14.50;79.20;;;;;;5032210;28;20168;-76
2022/11/01 02:27:23;;;;;;;9.80;4.20;;;14.50;79.20;;;;;;5031857;28;20046;-76
2022/11/01 02:30:05;;;;;;;11.57;4.93;;;14.50;79.10;;;;;;5015103;28;20136;-76
2022/11/01 02:32:48;;;;;;;12.27;4.43;;;14.50;79.00;;;;;;5031887;28;20042;-75
2022/11/01 02:35:22;;;;;;;10.95;4.65;;;14.50;79.10;;;;;;5048302;28;20140;-76
2022/11/01 02:37:54;;;;;;;8.60;4.20;;;14.60;79.00;;;;;;5053138;28;20053;-76
2022/11/01 02:40:27;;;;;;;12.15;4.50;;;14.60;78.90;;;;;;5051671;28;20132;-75
2022/11/01 02:43:00;;;;;;;11.38;4.53;;;14.60;79.00;;;;;;5052161;28;20079;-76
2022/11/01 02:45:34;;;;;;;11.00;4.72;;;14.60;78.90;;;;;;5068667;28;20515;-76
2022/11/01 02:48:04;;;;;;;14.05;4.57;;;14.60;78.90;;;;;;5051718;28;20048;-76
2022/11/01 02:50:36;;;;;;;12.17;4.60;;;14.60;78.90;;;;;;5069520;28;20069;-75
2022/11/01 02:53:04;;;;;;;12.13;4.50;;;14.60;78.70;;;;;;5069906;28;20060;-75
2022/11/01 02:55:32;;;;;;;12.65;5.03;;;14.60;78.70;;;;;;5066621;28;20051;-76
2022/11/01 02:58:02;;;;;;;10.20;4.43;;;14.60;78.70;;;;;;5071937;28;20071;-76
2022/11/01 03:00:30;;;;;;;12.80;4.35;;;14.70;78.80;;;;;;5072767;28;20156;-76
2022/11/01 03:03:07;;;;;;;10.03;4.37;;;14.70;78.80;;;;;;5075962;28;20053;-75
2022/11/01 03:05:41;;;;;;;10.88;4.32;;;14.70;78.80;;;;;;5073591;28;20496;-76
2022/11/01 03:08:11;;;;;;;10.63;4.70;;;14.70;78.80;;;;;;5092036;28;20056;-76
2022/11/01 03:10:45;;;;;;;11.55;4.90;;;14.70;78.90;;;;;;5091719;28;20074;-76
2022/11/01 03:13:27;;;;;;;11.50;4.65;;;14.80;78.90;;;;;;5074816;28;20127;-75
2022/11/01 03:16:03;;;;;;;8.60;4.27;;;14.80;79.00;;;;;;5072133;28;20267;-76
2022/11/01 03:18:35;;;;;;;12.02;4.05;;;14.80;79.10;;;;;;5071589;28;20081;-76
2022/11/01 03:21:14;;;;;;;11.55;4.40;;;14.80;79.20;;;;;;5054696;28;20600;-76
2022/11/01 03:23:47;;;;;;;11.50;3.53;;;14.90;79.30;;;;;;5093346;28;20132;-76
2022/11/01 03:26:19;;;;;;;9.95;4.50;;;14.90;79.30;;;;;;5074828;28;20052;-76
2022/11/01 03:28:49;;;;;;;14.43;5.07;;;15.00;79.40;;;;;;5086494;28;20738;-76
2022/11/01 03:31:20;;;;;;;12.80;4.50;;;15.00;79.40;;;;;;5034787;28;20046;-76
2022/11/01 03:33:52;;;;;;;9.82;4.18;;;15.10;79.50;;;;;;5034499;28;20766;-76
2022/11/01 03:36:23;;;;;;;10.10;4.10;;;15.20;79.50;;;;;;5052666;28;20131;-76
2022/11/01 03:38:55;;;;;;;9.48;3.97;;;15.30;79.50;;;;;;5044416;28;20060;-76
2022/11/01 03:41:25;;;;;;;10.33;4.07;;;15.30;79.50;;;;;;5054481;28;20053;-75
2022/11/01 03:43:53;;;;;;;11.23;3.85;;;15.40;79.40;;;;;;5054223;28;20522;-76
2022/11/01 03:46:21;;;;;;;10.52;4.18;;;15.40;79.50;;;;;;5034000;28;20137;-75
2022/11/01 03:48:49;;;;;;;8.75;4.28;;;15.40;79.50;;;;;;5050837;28;20057;-75
2022/11/01 03:51:16;;;;;;;9.63;4.57;;;15.50;79.50;;;;;;5052344;28;20172;-76
2022/11/01 03:53:43;;;;;;;9.33;4.00;;;15.50;79.60;;;;;;5061209;28;20049;-76
2022/11/01 03:56:10;;;;;;;9.63;4.05;;;15.50;79.60;;;;;;5074563;28;20053;-76
2022/11/01 03:58:44;;;;;;;8.90;3.67;;;15.50;79.60;;;;;;5092480;28;20155;-76
2022/11/01 04:01:12;;;;;;;9.27;4.13;;;15.60;79.70;;;;;;5074110;28;20136;-76
2022/11/01 04:03:40;;;;;;;8.95;4.15;;;15.60;79.70;;;;;;5046616;28;20133;-76
2022/11/01 04:06:08;;;;;;;8.57;4.00;;;15.60;79.60;;;;;;5054163;28;20539;-76
2022/11/01 04:08:36;;;;;;;8.65;4.28;;;15.60;79.70;;;;;;5071756;28;20057;-76
2022/11/01 04:11:04;;;;;;;10.45;4.05;;;15.60;79.70;;;;;;5072002;28;20053;-76
2022/11/01 04:13:31;;;;;;;10.20;4.78;;;15.60;79.90;;;;;;5085219;28;20052;-76
2022/11/01 04:21:31;;;;;;;11.60;4.13;;;15.80;80.10;;;;;;5041259;28;20057;-75
2022/11/01 04:23:58;;;;;;;9.38;4.18;;;15.80;80.10;;;;;;5034328;28;20139;-75
2022/11/01 04:26:25;;;;;;;9.32;4.10;;;15.80;80.20;;;;;;5033756;28;20056;-75
2022/11/01 04:28:57;;;;;;;8.48;4.47;;;15.80;80.20;;;;;;5033842;28;20045;-76
2022/11/01 04:31:25;;;;;;;9.37;3.67;;;15.80;80.20;;;;;;5088385;28;20055;-75
2022/11/01 04:33:52;;;;;;;11.43;4.10;;;15.90;80.30;;;;;;5073274;28;20048;-76
2022/11/01 04:36:19;;;;;;;11.80;4.50;;;16.00;80.20;;;;;;5053320;28;20041;-76
2022/11/01 04:38:50;;;;;;;9.60;3.95;;;16.00;80.10;;;;;;5052522;28;20084;-76
2022/11/01 04:41:18;;;;;;;10.60;4.30;;;16.00;80.10;;;;;;5053702;28;20346;-76
2022/11/01 04:43:45;;;;;;;9.60;4.43;;;16.00;80.10;;;;;;5070520;28;20054;-75
2022/11/01 04:46:12;;;;;;;11.82;4.15;;;16.00;80.00;;;;;;5069911;28;20141;-76
2022/11/01 04:48:39;;;;;;;10.20;4.57;;;16.00;80.00;;;;;;5073496;28;20087;-76
2022/11/01 04:51:06;;;;;;;8.50;4.00;;;16.10;80.10;;;;;;5073252;28;20477;-76
2022/11/01 04:53:34;;;;;;;10.27;4.40;;;16.10;80.10;;;;;;5071003;28;20139;-76
2022/11/01 04:56:03;;;;;;;10.37;4.13;;;16.10;80.20;;;;;;5033063;28;20042;-76
2022/11/01 04:58:31;;;;;;;10.98;4.03;;;16.10;80.10;;;;;;5033051;28;20054;-76
2022/11/01 05:00:57;;;;;;;7.90;3.83;;;16.10;80.20;;;;;;5033203;28;20096;-76
2022/11/01 05:03:24;;;;;;;8.90;3.35;;;16.10;80.10;;;;;;5064490;28;21045;-76
2022/11/01 05:05:51;;;;;;;10.77;4.10;;;16.10;80.00;;;;;;5090423;28;20048;-76
2022/11/01 05:08:18;;;;;;;6.80;3.80;;;16.10;80.10;;;;;;5073244;28;20055;-76
2022/11/01 05:10:45;;;;;;;7.68;3.80;;;16.10;80.10;;;;;;5066506;28;21039;-75
2022/11/01 05:13:13;;;;;;;11.63;3.70;;;16.20;80.00;;;;;;5032829;28;20045;-76
2022/11/01 05:15:40;;;;;;;9.48;4.28;;;16.10;80.10;;;;;;5032918;28;20050;-76
2022/11/01 05:18:07;;;;;;;7.75;3.53;;;16.10;80.00;;;;;;5050924;28;20049;-76
2022/11/01 05:20:34;;;;;;;9.63;3.73;;;16.20;80.00;;;;;;5021996;28;20044;-76
2022/11/01 05:23:03;;;;;;;8.23;3.47;;;16.20;79.80;;;;;;5091499;28;20059;-76
2022/11/01 05:25:30;;;;;;;7.35;3.78;;;16.20;79.60;;;;;;5073286;28;20051;-76
2022/11/01 05:28:00;;;;;;;7.50;3.50;;;16.20;79.60;;;;;;5049936;28;20167;-76
2022/11/01 05:30:29;;;;;;;7.43;3.15;;;16.20;79.70;;;;;;5050400;28;20051;-76
2022/11/01 05:32:57;;;;;;;9.90;4.00;;;16.20;79.70;;;;;;5032935;28;20498;-76
2022/11/01 05:35:24;;;;;;;8.82;2.90;;;16.20;79.70;;;;;;5046533;28;20072;-76
2022/11/01 05:37:51;;;;;;;7.57;3.70;;;16.20;79.80;;;;;;5079401;28;20067;-76
2022/11/01 05:40:18;;;;;;;10.10;3.90;;;16.20;79.70;;;;;;5072900;28;20110;-76
2022/11/01 05:42:45;;;;;;;7.70;3.67;;;16.30;79.50;;;;;;5072423;28;20544;-76
2022/11/01 05:45:12;;;;;;;7.70;3.53;;;16.30;79.30;;;;;;5080635;28;20053;-76
2022/11/01 05:47:40;;;;;;;12.23;2.85;;;16.30;79.40;;;;;;5050323;28;20080;-76
2022/11/01 05:50:08;;;;;;;7.15;2.22;;;16.40;76.60;;;;;;5050683;28;20495;-76
2022/11/01 05:52:35;;;;;;;4.82;1.80;;;16.40;75.60;;;;;;5032425;28;20080;-76
2022/11/01 05:55:02;;;;;;;6.80;1.63;;;16.30;74.30;;;;;;5067076;28;20086;-76
2022/11/01 05:57:29;;;;;;;6.20;1.20;;;16.20;72.70;;;;;;5072640;28;20053;-76
2022/11/01 05:59:56;;;;;;;6.25;1.27;;;16.20;72.00;;;;;;5072173;28;20422;-76
2022/11/01 06:02:23;;;;;;;7.22;0.93;;;16.10;70.90;;;;;;5080242;28;20496;-75
2022/11/01 06:04:51;;;;;;;3.85;0.77;;;16.10;69.50;;;;;;5032946;28;20628;-75
2022/11/01 06:07:18;;;;;;;3.95;0.60;;;16.00;68.70;;;;;;5032836;28;20422;-76
2022/11/01 06:09:46;;;;;;;5.13;0.97;;;16.00;68.70;;;;;;5053328;28;20570;-76
2022/11/01 06:12:13;;;;;;;5.00;0.82;;;15.80;69.20;;;;;;5059585;28;20055;-76
2022/11/01 06:14:40;;;;;;;4.10;0.70;;;15.80;68.90;;;;;;5072363;28;20052;-76
2022/11/01 06:17:07;;;;;;;4.07;0.70;;;15.80;68.90;;;;;;5039391;28;20049;-76
2022/11/01 06:19:34;;;;;;;4.70;0.70;;;15.70;69.10;;;;;;5031637;28;20102;-76
2022/11/01 06:22:02;;;;;;;5.17;0.70;;;15.60;68.80;;;;;;5065590;28;20056;-76
2022/11/01 06:24:30;;;;;;;4.10;0.90;;;15.60;68.90;;;;;;5069304;28;20052;-76
2022/11/01 06:26:57;;;;;;;2.92;0.80;;;15.50;69.00;;;;;;5051832;28;20052;-76
2022/11/01 06:29:24;;;;;;;5.22;0.80;;;15.50;68.70;;;;;;5066341;28;20056;-75
2022/11/01 06:31:52;;;;;;;4.03;0.60;;;15.50;68.40;;;;;;5064130;28;20049;-75
2022/11/01 06:34:19;;;;;;;4.47;0.70;;;15.40;68.20;;;;;;5049497;28;20049;-76
2022/11/01 06:36:45;;;;;;;5.82;0.90;;;15.30;68.40;;;;;;5047250;28;20521;-75
2022/11/01 06:39:14;;;;;;;5.88;0.70;;;15.30;68.30;;;;;;5048433;28;20140;-76
2022/11/01 06:41:41;;;;;;;4.38;0.80;;;15.30;68.60;;;;;;5049690;28;20053;-76
2022/11/01 06:44:08;;;;;;;4.13;0.80;;;15.20;69.00;;;;;;5068807;28;20534;-76
2022/11/01 06:46:35;;;;;;;5.23;0.93;;;15.20;69.40;;;;;;5071022;28;20207;-76
2022/11/01 06:49:02;;;;;;;6.95;1.00;;;15.10;69.50;;;;;;5066333;28;20061;-76
2022/11/01 06:51:29;;;;;;;4.50;0.80;;;15.10;69.90;;;;;;5050661;28;20068;-76
2022/11/01 06:53:56;;;;;;;5.13;1.00;;;15.00;70.10;;;;;;5049525;28;20046;-76
2022/11/01 06:56:24;;;;;;;4.82;0.82;;;15.00;70.30;;;;;;5053331;28;20053;-76
2022/11/01 06:58:51;;;;;;;4.20;1.10;;;15.00;69.40;;;;;;5069169;28;20056;-76
2022/11/01 07:01:20;;;;;;;4.68;0.90;;;15.00;68.60;;;;;;5076254;28;20069;-76
2022/11/01 07:03:50;;;;;;;6.05;1.00;;;15.00;68.50;;;;;;5050485;28;20130;-76
2022/11/01 07:06:17;;;;;;;5.40;0.75;;;15.00;66.60;;;;;;5071601;28;20199;-76
2022/11/01 07:08:45;;;;;;;5.05;1.00;;;15.00;66.00;;;;;;5080490;28;20054;-76
2022/11/01 07:11:12;;;;;;;4.93;1.00;;;14.90;65.80;;;;;;5048744;28;20139;-76
2022/11/01 07:13:40;;;;;;;5.40;0.80;;;14.80;65.80;;;;;;5069153;28;20129;-76
2022/11/01 07:16:08;;;;;;;6.57;0.88;;;14.80;65.60;;;;;;5069375;28;20057;-75
2022/11/01 07:18:35;;;;;;;7.57;0.93;;;14.80;65.60;;;;;;5050660;28;20075;-75
2022/11/01 07:21:02;;;;;;;6.03;0.90;;;14.80;65.40;;;;;;5065981;28;20049;-76
2022/11/01 07:23:30;;;;;;;4.73;0.90;;;14.70;65.70;;;;;;5064642;28;20045;-76
2022/11/01 07:25:57;;;;;;;4.57;0.77;;;14.70;66.20;;;;;;5068978;28;20053;-76
2022/11/01 07:28:25;;;;;;;5.13;0.68;;;14.70;66.60;;;;;;5064360;28;20504;-76
2022/11/01 07:30:54;;;;;;;3.47;0.70;;;14.70;67.20;;;;;;5047107;28;20052;-76
2022/11/01 07:33:22;;;;;;;4.85;0.70;;;14.70;67.70;;;;;;5050907;28;20131;-76
2022/11/01 07:35:49;;;;;;;3.43;0.50;;;14.60;68.40;;;;;;5066455;28;20073;-76
2022/11/01 07:38:16;;;;;;;4.90;0.85;;;14.60;68.70;;;;;;5068058;28;20094;-76
2022/11/01 07:40:48;;;;;;;5.53;0.88;;;14.70;69.00;;;;;;5050325;28;20519;-76
2022/11/01 07:43:16;;;;;;;6.03;1.05;;;14.70;68.90;;;;;;5052536;28;20136;-75
2022/11/01 07:45:43;;;;;;;6.20;0.88;;;14.70;68.40;;;;;;5055684;28;20810;-76
2022/11/01 07:48:14;;;;;;;4.23;0.80;;;14.80;68.00;;;;;;5071726;28;20131;-75
2022/11/01 07:50:43;;;;;;;5.85;0.90;;;14.80;67.50;;;;;;5069653;28;20053;-75
2022/11/01 07:53:12;;;;;;;6.78;0.80;;;14.80;67.90;;;;;;5071287;28;20045;-75
2022/11/01 07:55:40;;;;;;;5.70;0.73;;;14.80;68.30;;;;;;5066567;28;20045;-75
2022/11/01 07:58:07;;;;;;;6.53;1.10;;;14.80;68.00;;;;;;5070757;28;20051;-75
2022/11/01 08:00:35;;;;;;;9.73;1.10;;;14.80;67.00;;;;;;5052259;28;20494;-75
2022/11/01 08:03:04;;;;;;;7.32;1.10;;;14.80;67.10;;;;;;5053584;28;20523;-75
2022/11/01 08:05:33;;;;;;;8.00;1.42;;;14.80;67.60;;;;;;5067305;28;20132;-75
2022/11/01 08:08:00;;;;;;;8.30;1.00;;;14.80;66.90;;;;;;5072818;28;20060;-75
2022/11/01 08:10:28;;;;;;;7.10;1.05;;;14.80;66.20;;;;;;5053519;28;20057;-76
2022/11/01 08:13:01;;;;;;;7.03;1.10;;;14.70;66.20;;;;;;5071168;28;20049;-76
2022/11/01 08:15:28;;;;;;;7.90;1.20;;;14.70;66.00;;;;;;5054022;28;20128;-76
2022/11/01 08:17:56;;;;;;;11.80;1.30;;;14.70;65.70;;;;;;5054099;28;20565;-75
2022/11/01 08:20:24;;;;;;;9.07;1.35;;;14.70;65.30;;;;;;5070125;28;20045;-75
2022/11/01 08:22:52;;;;;;;8.95;1.35;;;14.70;65.20;;;;;;5053398;28;20124;-77
2022/11/01 08:25:19;;;;;;;10.03;1.50;;;14.70;65.20;;;;;;5054043;28;20497;-76
2022/11/01 08:27:47;;;;;;;8.50;1.00;;;14.70;64.80;;;;;;5070750;28;20128;-75
2022/11/01 08:30:14;;;;;;;10.93;1.42;;;14.60;64.80;;;;;;5072021;28;20049;-75
2022/11/01 08:32:41;;;;;;;9.65;1.27;;;14.60;64.80;;;;;;5072297;28;20057;-75
2022/11/01 08:35:10;;;;;;;9.95;2.03;;;14.60;64.30;;;;;;5072109;28;20051;-75
2022/11/01 08:37:37;;;;;;;11.70;1.40;;;14.60;64.60;;;;;;5070489;28;20045;-74
2022/11/01 08:40:07;;;;;;;11.50;1.40;;;14.60;64.00;;;;;;5052464;28;20584;-75
2022/11/01 08:42:37;;;;;;;12.27;1.80;;;14.60;63.90;;;;;;5052278;28;20045;-75
2022/11/01 08:45:06;;;;;;;13.27;1.85;;;14.70;63.50;;;;;;5051936;28;20132;-75
2022/11/01 08:47:33;;;;;;;11.82;1.70;;;14.70;63.60;;;;;;5063789;28;20928;-75
2022/11/01 08:50:00;;;;;;;12.30;2.00;;;14.70;63.40;;;;;;5075092;28;20776;-75
2022/11/01 08:52:27;;;;;;;15.68;1.90;;;14.70;63.40;;;;;;5071267;28;20135;-75
2022/11/01 08:54:54;;;;;;;14.25;1.88;;;14.70;63.50;;;;;;5052415;28;20098;-75
2022/11/01 08:57:23;;;;;;;11.48;1.58;;;14.80;63.50;;;;;;5047784;28;20047;-75
2022/11/01 08:59:50;;;;;;;12.40;1.65;;;14.80;63.40;;;;;;5037307;28;20049;-75
2022/11/01 09:02:17;;;;;;;11.60;1.60;;;14.90;63.20;;;;;;5069580;28;20127;-76
2022/11/01 09:04:44;;;;;;;10.48;1.85;;;14.80;63.30;;;;;;5067955;28;20045;-76
2022/11/01 09:07:11;;;;;;;12.82;1.60;;;14.80;63.60;;;;;;5068891;28;20069;-76
2022/11/01 09:09:38;;;;;;;12.68;2.33;;;14.90;63.70;;;;;;5051309;28;20768;-75
2022/11/01 09:12:06;;;;;;;13.15;2.15;;;14.90;63.50;;;;;;5069507;28;20136;-75
2022/11/01 09:14:35;;;;;;;11.73;2.00;;;14.90;63.50;;;;;;5051502;28;20052;-76
2022/11/01 09:17:03;;;;;;;7.80;1.00;;;14.90;63.50;;;;;;5051717;28;20049;-76
2022/11/01 09:19:30;;;;;;;11.38;1.83;;;14.90;63.50;;;;;;5065018;28;20070;-76
2022/11/01 09:21:57;;;;;;;13.45;2.00;;;15.00;63.40;;;;;;5052635;28;20048;-76
2022/11/01 09:24:24;;;;;;;13.20;1.60;;;15.00;63.60;;;;;;5052419;28;20410;-76
2022/11/01 09:26:51;;;;;;;11.53;1.80;;;15.00;63.40;;;;;;5050896;28;20049;-76
2022/11/01 09:29:19;;;;;;;9.55;1.73;;;15.00;63.70;;;;;;5074792;28;20049;-75
2022/11/01 09:31:50;;;;;;;12.90;1.98;;;15.00;63.70;;;;;;5048962;28;20052;-75
2022/11/01 09:34:18;;;;;;;9.68;1.60;;;15.00;63.50;;;;;;5052380;28;20434;-75
2022/11/01 09:36:46;;;;;;;12.50;1.75;;;15.00;63.70;;;;;;5052019;28;20577;-75
2022/11/01 09:39:15;;;;;;;10.30;1.67;;;15.00;64.30;;;;;;5060575;28;20455;-76
2022/11/01 09:41:46;;;;;;;9.68;1.73;;;15.00;64.80;;;;;;5072476;28;20989;-76
2022/11/01 09:44:16;;;;;;;10.45;1.75;;;15.00;64.70;;;;;;5086625;28;20052;-76
2022/11/01 09:46:49;;;;;;;14.00;2.05;;;15.00;64.90;;;;;;5043437;28;21232;-76
2022/11/01 09:49:22;;;;;;;10.57;1.60;;;15.00;65.10;;;;;;5044383;28;20120;-76
2022/11/01 09:51:49;;;;;;;13.87;1.90;;;15.00;65.50;;;;;;5031124;28;20053;-76
2022/11/01 09:54:21;;;;;;;10.88;1.67;;;15.10;65.40;;;;;;5031037;28;20851;-76
2022/11/01 09:56:55;;;;;;;10.77;1.70;;;15.10;65.70;;;;;;5049076;28;20088;-76
2022/11/01 09:59:31;;;;;;;12.68;1.85;;;15.20;66.00;;;;;;5067711;28;20094;-76
2022/11/01 10:02:17;;;;;;;12.57;1.73;;;15.20;65.40;;;;;;5088160;28;20072;-76
2022/11/01 10:05:20;;;;;;;9.57;1.80;;;15.30;65.00;;;;;;5089892;28;20071;-76
2022/11/01 10:07:59;;;;;;;13.18;2.15;;;15.30;65.00;;;;;;5055884;28;20887;-76
2022/11/01 10:10:37;;;;;;;8.15;1.50;;;15.30;65.50;;;;;;5051896;28;20045;-76
2022/11/01 10:13:19;;;;;;;13.98;1.67;;;15.30;65.60;;;;;;5051928;28;20049;-80
2022/11/01 10:15:56;;;;;;;12.98;1.52;;;15.30;65.70;;;;;;5065841;28;20056;-76
2022/11/01 10:18:29;;;;;;;12.87;2.00;;;15.30;66.20;;;;;;5052853;28;20388;-76
2022/11/01 10:20:59;;;;;;;12.95;1.90;;;15.40;65.80;;;;;;5068571;28;20052;-76
2022/11/01 10:23:38;;;;;;;11.63;1.90;;;15.40;65.70;;;;;;5047178;28;20041;-76
2022/11/01 10:26:07;;;;;;;11.68;1.70;;;15.40;65.80;;;;;;5064992;28;20052;-77
2022/11/01 10:28:46;;;;;;;12.40;1.65;;;15.40;66.10;;;;;;5049990;28;20056;-77
2022/11/01 10:31:16;;;;;;;16.17;1.60;;;15.40;65.80;;;;;;5066502;28;20493;-77
2022/11/01 10:33:51;;;;;;;12.48;1.70;;;15.50;66.10;;;;;;5069953;28;20061;-77
2022/11/01 10:36:23;;;;;;;12.00;1.70;;;15.50;65.90;;;;;;5049840;28;20056;-77
2022/11/01 10:38:57;;;;;;;11.05;1.20;;;15.50;65.10;;;;;;5076725;28;20136;-77
2022/11/01 10:41:31;;;;;;;12.73;2.00;;;15.50;65.20;;;;;;5044591;28;20099;-77
2022/11/01 10:44:02;;;;;;;14.97;1.80;;;15.50;65.10;;;;;;5050227;28;20045;-77
2022/11/01 10:46:33;;;;;;;10.90;1.73;;;15.50;65.50;;;;;;5065544;28;20537;-77
2022/11/01 10:49:06;;;;;;;15.32;1.45;;;15.50;65.70;;;;;;5048541;28;20570;-77
2022/11/01 10:51:35;;;;;;;12.45;1.90;;;15.40;65.80;;;;;;5053124;28;20053;-77
2022/11/01 10:54:29;;;;;;;11.73;1.83;;;15.50;65.30;;;;;;5052361;28;20061;-77
2022/11/01 10:57:00;;;;;;;10.00;2.00;;;15.50;65.50;;;;;;5045743;28;20053;-77
2022/11/01 10:59:32;;;;;;;19.10;2.10;;;15.40;65.40;;;;;;5072338;28;20044;-77
2022/11/01 11:02:37;;;;;;;9.95;1.70;;;15.40;65.80;;;;;;5049994;28;20041;-77
2022/11/01 11:05:06;;;;;;;12.45;2.03;;;15.30;66.60;;;;;;5047348;28;20132;-76
2022/11/01 11:07:33;;;;;;;13.20;2.05;;;15.30;66.80;;;;;;5074033;28;20151;-76
2022/11/01 11:10:02;;;;;;;10.37;1.90;;;15.30;66.60;;;;;;5050334;28;20060;-76
2022/11/01 11:12:30;;;;;;;12.75;2.20;;;15.30;66.70;;;;;;5069340;28;20177;-76
2022/11/01 11:15:02;;;;;;;11.77;1.60;;;15.40;66.20;;;;;;5051481;28;20131;-76
2022/11/01 11:17:42;;;;;;;12.77;1.70;;;15.40;66.60;;;;;;5045815;28;20053;-76
2022/11/01 11:20:12;;;;;;;13.15;2.00;;;15.40;66.80;;;;;;5065802;28;21156;-76
2022/11/01 11:22:41;;;;;;;13.27;1.67;;;15.50;66.40;;;;;;5072669;28;20462;-76
2022/11/01 11:25:15;;;;;;;13.93;1.95;;;15.50;66.60;;;;;;5055284;28;20546;-76
2022/11/01 11:27:46;;;;;;;13.55;1.67;;;15.50;66.90;;;;;;5052297;28;20136;-76
2022/11/01 11:30:25;;;;;;;12.45;1.75;;;15.60;66.60;;;;;;5053648;28;20057;-76
2022/11/01 11:32:52;;;;;;;11.63;1.73;;;15.60;66.70;;;;;;5053503;28;20048;-76
2022/11/01 11:35:23;;;;;;;9.07;1.50;;;15.60;66.80;;;;;;5067976;28;20061;-76
2022/11/01 11:37:54;;;;;;;10.07;1.92;;;15.60;67.20;;;;;;5040723;28;20130;-76
2022/11/01 11:40:23;;;;;;;11.50;1.23;;;15.70;66.80;;;;;;5053176;28;20053;-76
2022/11/01 11:42:51;;;;;;;9.23;1.20;;;15.80;66.80;;;;;;5067938;28;20057;-76
2022/11/01 11:45:28;;;;;;;7.47;1.50;;;15.80;67.00;;;;;;5053742;28;20488;-77
2022/11/01 11:47:57;;;;;;;9.10;1.50;;;15.80;66.20;;;;;;5068995;28;20055;-76
2022/11/01 11:50:31;;;;;;;10.05;1.90;;;16.00;65.60;;;;;;5052001;28;20053;-77
2022/11/01 11:53:00;;;;;;;10.30;1.90;;;16.00;65.50;;;;;;5049401;28;20367;-77
2022/11/01 11:55:35;;;;;;;10.43;1.60;;;16.10;64.90;;;;;;5053184;28;20049;-76
2022/11/01 11:58:04;;;;;;;9.18;1.52;;;16.10;65.40;;;;;;5057395;28;20128;-76
2022/11/01 12:00:34;;;;;;;10.77;1.20;;;16.20;64.90;;;;;;5074596;28;20049;-76
2022/11/01 12:03:04;;;;;;;10.35;1.58;;;16.20;65.30;;;;;;5091456;28;20057;-76
2022/11/01 12:05:34;;;;;;;12.52;1.50;;;16.30;64.40;;;;;;5090937;28;20053;-76
2022/11/01 12:08:01;;;;;;;9.88;1.38;;;16.40;63.90;;;;;;5072718;28;20534;-76
2022/11/01 12:10:31;;;;;;;11.00;1.38;;;16.40;64.00;;;;;;5081424;28;20148;-76
2022/11/01 12:12:59;;;;;;;8.73;1.17;;;16.40;64.20;;;;;;5069891;28;20056;-76
2022/11/01 12:15:28;;;;;;;10.02;1.42;;;16.40;64.30;;;;;;5051876;28;20459;-76
2022/11/01 12:17:56;;;;;;;7.15;1.48;;;16.40;64.50;;;;;;5070450;28;20045;-75
2022/11/01 12:20:25;;;;;;;11.85;1.35;;;16.40;64.90;;;;;;5051625;28;20471;-75
2022/11/01 12:23:05;;;;;;;8.52;1.30;;;16.40;65.40;;;;;;5052472;28;20538;-75
2022/11/01 12:25:34;;;;;;;5.93;0.87;;;16.50;64.30;;;;;;5070883;28;20460;-76
2022/11/01 12:28:05;;;;;;;8.88;1.23;;;16.60;63.50;;;;;;5051575;28;20045;-75
2022/11/01 12:30:35;;;;;;;8.98;1.40;;;16.60;62.90;;;;;;5051548;28;20057;-75
2022/11/01 12:33:14;;;;;;;5.75;1.10;;;16.70;63.20;;;;;;5060326;28;20051;-74
2022/11/01 12:35:43;;;;;;;10.15;1.10;;;16.60;63.30;;;;;;5054084;28;20139;-75
2022/11/01 12:38:32;;;;;;;11.47;1.50;;;16.60;63.80;;;;;;5053711;28;20052;-75
2022/11/01 12:41:10;;;;;;;8.45;1.40;;;16.70;63.20;;;;;;5052620;28;20536;-75
2022/11/01 12:44:06;;;;;;;8.43;1.15;;;16.70;63.40;;;;;;5051451;28;20041;-75
2022/11/01 12:46:38;;;;;;;9.73;1.30;;;16.70;64.20;;;;;;5053162;28;20523;-75
2022/11/01 12:49:13;;;;;;;11.23;1.58;;;16.70;64.10;;;;;;5032908;28;20061;-75
2022/11/01 12:51:45;;;;;;;10.57;1.53;;;16.70;63.70;;;;;;5051897;28;20163;-74
2022/11/01 12:54:18;;;;;;;7.13;1.20;;;16.70;64.10;;;;;;5056239;28;20302;-76
2022/11/01 12:56:45;;;;;;;10.10;1.38;;;16.70;63.90;;;;;;5052476;28;20152;-75
2022/11/01 12:59:17;;;;;;;7.65;1.10;;;16.70;63.70;;;;;;5052110;28;20045;-75
2022/11/01 13:01:51;;;;;;;11.00;1.90;;;16.80;63.70;;;;;;5069487;28;20067;-75